Prior Lake, MN (55372)

12:54 AM CST on February 07, 2016 (GMT -0600)
Cardinal Ridge | | Change Station
CLOSE
Current Station
Personal Weather Station
Location: Prior Lake, MN
Elevation: 953 ft
Nearby Weather Stations
Active Advisory: Winter Weather Advisory

Elev 953 ft 44.71 °N, 93.41 °W | Updated 5 seconds ago

Mostly Cloudy
Mostly Cloudy
33.3 °F
Feels Like 33 °F
N
1.8
Wind Variable Wind from WSW
Gusts 8.9 mph

Today
High -- | Low -- °F
--% Chance of Precip.
Yesterday
High -- | Low -- °F
Precip. -- in
Pressure 29.73 in
Visibility 10.0 miles
Clouds Mostly Cloudy 11000 ft
Windchill 33 °F
Dew Point 25 °F
Humidity 72%
Rainfall 0.00 in
Snow Depth Not available.
7:25 AM 5:30 PM
Waning Crescent, 2% visible
METAR KFCM 070553Z AUTO 22011KT 10SM BKN110 02/M03 A2971 RMK AO2 SLP068 60000 T00171028 10022 20017 400221039 58031
Pressure 29.73 in
Visibility 10.0 miles
Clouds Mostly Cloudy 11000 ft
Windchill 33 °F
Dew Point 25 °F
Humidity 72%
Rainfall 0.00 in
Snow Depth Not available.
7:25 AM 5:30 PM
Waning Crescent, 2% visible
METAR KFCM 070553Z AUTO 22011KT 10SM BKN110 02/M03 A2971 RMK AO2 SLP068 60000 T00171028 10022 20017 400221039 58031

10-Day Weather Forecast

Almanac

Astronomy

Feb. 07, 2016 Rise Set
Actual Time
Civil Twilight
Nautical Twilight
Astronomical Twilight
Moon
Length of Visible Light
Length of Day
Tomorrow will be .
, % of the Moon is Illuminated

Today's Extremes

State Highs State Lows

Community

WunderPhotos

Upload Photos

1,891,174 photos uploaded!

WunderBlog® & News

Nearby

Air Quality

  Air Quality AQ Index Pollutant
Not available.

Snow Depth

Station Depth Elevation

Earthquake Activity

City Distance Mag. Time & Date
Minimum magnitude displayed is 2.5.

Coastal Water Temperatures

Place Temperature

Stations

Nearby Weather Stations

Station Location Temp. Windchill Dew Point Humidity Wind Precip. Elev Updated Type
                   

Watches & Warnings

Winter Weather Advisory
Issued: 8:53 PM CST Feb. 6, 2016 – National Weather Service

... Winter Weather Advisory remains in effect from 3 PM Sunday to
noon CST Monday...

A Winter Weather Advisory remains in effect from 3 PM Sunday to
noon CST Monday.

* Expect snow to develop around 3 PM Sunday and then diminish
around noon Monday.

* Total snow accumulations of up to 2 inches are expected.

* Winds gusting as high as 45 mph will cause areas of blowing and
drifting snow.

* Plan on slippery Road conditions.

Precautionary/preparedness actions...

A Winter Weather Advisory for snow means periods of snow will
cause primarily travel difficulties. Be prepared for snow covered
roads and limited visibilities... and use caution while driving.
The latest Road conditions for the state you are calling from can
be obtained by calling 5 1 1.


Borghoff/jrb/rec